LFOP 200400Z AUTO 14003KT CAVOK 13/10 Q1023

ElémentsDécodage
LFOP Station météo située sur l'aérodrome de ROUEN Vallée-de-Seine
200400Z émis le 20 du mois à 04h00 UTC
AUTO Bulletin édité par un automate
14003KT vent du 140°, 03 noeuds
CAVOK Ceiling And Visibility OK
- Visibilité de 10 Km ou plus
- Pas de nuage au-dessous de 1500m ou au-dessous de l'altitude minimale du secteur la plus élevée (si>1500m) et absence de CB
- pas de temps présent significatif
13/10 température 13°C, point de rosée 10°C
 soit une humidité relative de 82%
Q1023 la pression au niveau de la mer (QNH) est de 1023 hPa